Agua de Oro, Argentina
Current Conditions -  °F | °C
As of 1:00 AM on Thursday 27 Nov 2014 (Local Time) from SACO Reporting Station
Clear Clear  
Wind Chill: 61°   Ceiling: Unl
Heat Index: 61°   Visibility: 6mi
Dew Point: 54°   Wind: 7mph
Humidity: 77%   Direction: 320°NW
Pressure: 30.06"   Gusts: NA
Location:  31.07°S, 64.3°W
Report Text: SACO 270400Z 32006KT CAVOK 16/12 Q1018
Loading
Personal Weather Stations






























Interactive Weather Map New forecast layout! Learn more

10-Day Weather Forecast

Advertisements
Track Severe Weather on mobile